sensor_id;sensor_type;location;lat;lon;timestamp;P1;durP1;ratioP1;P2;durP2;ratioP2
51238;SDS011;38154;47.548;18.828;2023-11-22T00:00:09;46.35;;;10.30;;
51238;SDS011;38154;47.548;18.828;2023-11-22T00:02:35;52.55;;;11.73;;
51238;SDS011;38154;47.548;18.828;2023-11-22T00:05:01;81.43;;;12.43;;
51238;SDS011;38154;47.548;18.828;2023-11-22T00:07:28;31.10;;;10.48;;
51238;SDS011;38154;47.548;18.828;2023-11-22T00:09:55;42.17;;;11.07;;
51238;SDS011;38154;47.548;18.828;2023-11-22T00:12:21;43.40;;;9.93;;
51238;SDS011;38154;47.548;18.828;2023-11-22T00:14:48;26.70;;;9.95;;
51238;SDS011;38154;47.548;18.828;2023-11-22T00:17:14;86.55;;;13.13;;
51238;SDS011;38154;47.548;18.828;2023-11-22T00:19:43;63.87;;;9.68;;
51238;SDS011;38154;47.548;18.828;2023-11-22T00:22:10;73.78;;;10.57;;
51238;SDS011;38154;47.548;18.828;2023-11-22T00:24:40;68.18;;;10.80;;
51238;SDS011;38154;47.548;18.828;2023-11-22T00:27:07;71.57;;;11.43;;
51238;SDS011;38154;47.548;18.828;2023-11-22T00:29:33;100.57;;;11.82;;
51238;SDS011;38154;47.548;18.828;2023-11-22T00:31:59;80.35;;;10.60;;
51238;SDS011;38154;47.548;18.828;2023-11-22T00:34:26;58.53;;;9.95;;
51238;SDS011;38154;47.548;18.828;2023-11-22T00:36:52;52.93;;;8.63;;
51238;SDS011;38154;47.548;18.828;2023-11-22T00:39:18;63.28;;;9.63;;
51238;SDS011;38154;47.548;18.828;2023-11-22T00:41:44;77.65;;;8.40;;
51238;SDS011;38154;47.548;18.828;2023-11-22T00:44:10;79.45;;;11.77;;
51238;SDS011;38154;47.548;18.828;2023-11-22T00:46:37;43.78;;;8.13;;
51238;SDS011;38154;47.548;18.828;2023-11-22T00:49:03;20.10;;;7.85;;
51238;SDS011;38154;47.548;18.828;2023-11-22T00:51:34;26.58;;;8.52;;
51238;SDS011;38154;47.548;18.828;2023-11-22T00:54:00;22.05;;;8.73;;
51238;SDS011;38154;47.548;18.828;2023-11-22T00:56:26;17.27;;;9.52;;
51238;SDS011;38154;47.548;18.828;2023-11-22T00:58:52;13.90;;;7.07;;
51238;SDS011;38154;47.548;18.828;2023-11-22T01:03:45;17.02;;;7.47;;
51238;SDS011;38154;47.548;18.828;2023-11-22T01:06:12;16.42;;;9.15;;
51238;SDS011;38154;47.548;18.828;2023-11-22T01:08:38;33.63;;;7.95;;
51238;SDS011;38154;47.548;18.828;2023-11-22T01:11:04;27.05;;;8.05;;
51238;SDS011;38154;47.548;18.828;2023-11-22T01:13:31;15.65;;;7.55;;
51238;SDS011;38154;47.548;18.828;2023-11-22T01:16:09;28.27;;;8.45;;
51238;SDS011;38154;47.548;18.828;2023-11-22T01:18:36;30.48;;;8.55;;
51238;SDS011;38154;47.548;18.828;2023-11-22T01:21:02;57.67;;;9.55;;
51238;SDS011;38154;47.548;18.828;2023-11-22T01:23:32;27.98;;;8.60;;
51238;SDS011;38154;47.548;18.828;2023-11-22T01:25:58;29.00;;;9.02;;
51238;SDS011;38154;47.548;18.828;2023-11-22T01:28:25;14.73;;;7.85;;
51238;SDS011;38154;47.548;18.828;2023-11-22T01:30:53;15.52;;;8.68;;
51238;SDS011;38154;47.548;18.828;2023-11-22T01:33:20;20.52;;;9.10;;
51238;SDS011;38154;47.548;18.828;2023-11-22T01:38:14;26.27;;;7.57;;
51238;SDS011;38154;47.548;18.828;2023-11-22T01:40:43;21.58;;;8.23;;
51238;SDS011;38154;47.548;18.828;2023-11-22T01:43:16;16.25;;;8.52;;
51238;SDS011;38154;47.548;18.828;2023-11-22T01:45:44;20.80;;;8.30;;
51238;SDS011;38154;47.548;18.828;2023-11-22T01:48:12;17.27;;;8.52;;
51238;SDS011;38154;47.548;18.828;2023-11-22T01:50:38;21.10;;;9.45;;
51238;SDS011;38154;47.548;18.828;2023-11-22T01:53:06;44.97;;;9.35;;
51238;SDS011;38154;47.548;18.828;2023-11-22T01:55:34;38.83;;;9.18;;
51238;SDS011;38154;47.548;18.828;2023-11-22T01:58:00;54.75;;;8.80;;
51238;SDS011;38154;47.548;18.828;2023-11-22T02:00:27;18.27;;;8.77;;
51238;SDS011;38154;47.548;18.828;2023-11-22T02:02:58;29.80;;;8.48;;
51238;SDS011;38154;47.548;18.828;2023-11-22T02:05:25;44.05;;;9.27;;
51238;SDS011;38154;47.548;18.828;2023-11-22T02:07:51;26.05;;;8.00;;
51238;SDS011;38154;47.548;18.828;2023-11-22T02:10:17;41.25;;;8.50;;
51238;SDS011;38154;47.548;18.828;2023-11-22T02:12:43;16.52;;;8.43;;
51238;SDS011;38154;47.548;18.828;2023-11-22T02:15:09;23.45;;;7.05;;
51238;SDS011;38154;47.548;18.828;2023-11-22T02:17:36;17.70;;;7.30;;
51238;SDS011;38154;47.548;18.828;2023-11-22T02:20:02;38.78;;;8.00;;
51238;SDS011;38154;47.548;18.828;2023-11-22T02:22:31;32.15;;;8.23;;
51238;SDS011;38154;47.548;18.828;2023-11-22T02:24:57;33.88;;;7.87;;
51238;SDS011;38154;47.548;18.828;2023-11-22T02:27:23;16.70;;;7.30;;
51238;SDS011;38154;47.548;18.828;2023-11-22T02:29:49;23.25;;;6.90;;
51238;SDS011;38154;47.548;18.828;2023-11-22T02:32:15;24.33;;;6.87;;
51238;SDS011;38154;47.548;18.828;2023-11-22T02:34:41;14.90;;;7.10;;
51238;SDS011;38154;47.548;18.828;2023-11-22T02:37:07;20.95;;;6.45;;
51238;SDS011;38154;47.548;18.828;2023-11-22T02:40:19;19.65;;;6.82;;
51238;SDS011;38154;47.548;18.828;2023-11-22T02:42:30;23.85;;;6.97;;
51238;SDS011;38154;47.548;18.828;2023-11-22T02:44:56;58.13;;;7.40;;
51238;SDS011;38154;47.548;18.828;2023-11-22T02:47:22;28.20;;;6.90;;
51238;SDS011;38154;47.548;18.828;2023-11-22T02:49:49;21.15;;;7.22;;
51238;SDS011;38154;47.548;18.828;2023-11-22T02:52:15;34.90;;;7.97;;
51238;SDS011;38154;47.548;18.828;2023-11-22T02:54:44;24.25;;;7.40;;
51238;SDS011;38154;47.548;18.828;2023-11-22T02:57:13;23.33;;;7.30;;
51238;SDS011;38154;47.548;18.828;2023-11-22T02:59:42;41.13;;;6.32;;
51238;SDS011;38154;47.548;18.828;2023-11-22T03:02:09;26.73;;;7.62;;
51238;SDS011;38154;47.548;18.828;2023-11-22T03:04:35;28.62;;;7.18;;
51238;SDS011;38154;47.548;18.828;2023-11-22T03:07:01;24.67;;;6.47;;
51238;SDS011;38154;47.548;18.828;2023-11-22T03:09:27;29.58;;;6.95;;
51238;SDS011;38154;47.548;18.828;2023-11-22T03:11:54;19.37;;;6.25;;
51238;SDS011;38154;47.548;18.828;2023-11-22T03:14:20;8.35;;;5.95;;
51238;SDS011;38154;47.548;18.828;2023-11-22T03:16:47;12.40;;;7.07;;
51238;SDS011;38154;47.548;18.828;2023-11-22T03:19:14;12.98;;;6.50;;
51238;SDS011;38154;47.548;18.828;2023-11-22T03:21:40;12.32;;;6.75;;
51238;SDS011;38154;47.548;18.828;2023-11-22T03:24:07;9.27;;;5.45;;
51238;SDS011;38154;47.548;18.828;2023-11-22T03:26:34;13.20;;;6.22;;
51238;SDS011;38154;47.548;18.828;2023-11-22T03:29:00;8.77;;;5.57;;
51238;SDS011;38154;47.548;18.828;2023-11-22T03:31:27;11.43;;;6.30;;
51238;SDS011;38154;47.548;18.828;2023-11-22T03:33:56;13.60;;;6.97;;
51238;SDS011;38154;47.548;18.828;2023-11-22T03:36:23;9.70;;;5.80;;
51238;SDS011;38154;47.548;18.828;2023-11-22T03:38:49;11.55;;;5.95;;
51238;SDS011;38154;47.548;18.828;2023-11-22T03:41:16;10.02;;;5.62;;
51238;SDS011;38154;47.548;18.828;2023-11-22T03:43:44;9.75;;;6.35;;
51238;SDS011;38154;47.548;18.828;2023-11-22T03:46:10;10.65;;;6.43;;
51238;SDS011;38154;47.548;18.828;2023-11-22T03:48:37;11.45;;;6.93;;
51238;SDS011;38154;47.548;18.828;2023-11-22T03:51:03;15.27;;;6.50;;
51238;SDS011;38154;47.548;18.828;2023-11-22T03:53:28;7.72;;;6.03;;
51238;SDS011;38154;47.548;18.828;2023-11-22T03:55:54;10.32;;;5.55;;
51238;SDS011;38154;47.548;18.828;2023-11-22T03:58:20;10.40;;;6.28;;
51238;SDS011;38154;47.548;18.828;2023-11-22T04:00:46;19.87;;;9.15;;
51238;SDS011;38154;47.548;18.828;2023-11-22T04:03:12;34.05;;;13.70;;
51238;SDS011;38154;47.548;18.828;2023-11-22T04:05:38;36.58;;;14.32;;
51238;SDS011;38154;47.548;18.828;2023-11-22T04:08:04;23.47;;;8.93;;
51238;SDS011;38154;47.548;18.828;2023-11-22T04:10:30;52.45;;;19.10;;
51238;SDS011;38154;47.548;18.828;2023-11-22T04:12:56;20.85;;;8.07;;
51238;SDS011;38154;47.548;18.828;2023-11-22T04:15:22;19.05;;;7.25;;
51238;SDS011;38154;47.548;18.828;2023-11-22T04:17:48;21.80;;;10.38;;
51238;SDS011;38154;47.548;18.828;2023-11-22T04:20:14;14.57;;;7.35;;
51238;SDS011;38154;47.548;18.828;2023-11-22T04:22:41;16.83;;;7.60;;
51238;SDS011;38154;47.548;18.828;2023-11-22T04:25:07;50.28;;;20.85;;
51238;SDS011;38154;47.548;18.828;2023-11-22T04:27:39;22.45;;;10.35;;
51238;SDS011;38154;47.548;18.828;2023-11-22T04:30:06;14.20;;;6.03;;
51238;SDS011;38154;47.548;18.828;2023-11-22T04:32:42;22.27;;;9.35;;
51238;SDS011;38154;47.548;18.828;2023-11-22T04:35:09;13.40;;;6.57;;
51238;SDS011;38154;47.548;18.828;2023-11-22T04:37:36;21.57;;;10.00;;
51238;SDS011;38154;47.548;18.828;2023-11-22T04:40:02;17.87;;;8.45;;
51238;SDS011;38154;47.548;18.828;2023-11-22T04:42:34;23.70;;;10.48;;
51238;SDS011;38154;47.548;18.828;2023-11-22T04:45:03;15.98;;;7.62;;
51238;SDS011;38154;47.548;18.828;2023-11-22T04:47:29;19.58;;;9.27;;
51238;SDS011;38154;47.548;18.828;2023-11-22T04:49:55;26.77;;;11.80;;
51238;SDS011;38154;47.548;18.828;2023-11-22T04:52:21;28.98;;;13.13;;
51238;SDS011;38154;47.548;18.828;2023-11-22T04:54:47;36.33;;;16.48;;
51238;SDS011;38154;47.548;18.828;2023-11-22T04:57:13;12.27;;;7.37;;
51238;SDS011;38154;47.548;18.828;2023-11-22T04:59:38;12.48;;;7.22;;
51238;SDS011;38154;47.548;18.828;2023-11-22T05:02:06;13.10;;;6.15;;
51238;SDS011;38154;47.548;18.828;2023-11-22T05:04:32;10.68;;;6.68;;
51238;SDS011;38154;47.548;18.828;2023-11-22T05:06:58;12.40;;;6.80;;
51238;SDS011;38154;47.548;18.828;2023-11-22T05:09:24;12.43;;;6.68;;
51238;SDS011;38154;47.548;18.828;2023-11-22T05:11:50;14.13;;;7.47;;
51238;SDS011;38154;47.548;18.828;2023-11-22T05:14:17;9.38;;;5.97;;
51238;SDS011;38154;47.548;18.828;2023-11-22T05:16:43;11.25;;;6.82;;
51238;SDS011;38154;47.548;18.828;2023-11-22T05:19:09;9.75;;;6.62;;
51238;SDS011;38154;47.548;18.828;2023-11-22T05:21:35;17.30;;;7.50;;
51238;SDS011;38154;47.548;18.828;2023-11-22T05:24:01;10.38;;;6.87;;
51238;SDS011;38154;47.548;18.828;2023-11-22T05:26:27;11.00;;;6.12;;
51238;SDS011;38154;47.548;18.828;2023-11-22T05:28:53;11.68;;;6.85;;
51238;SDS011;38154;47.548;18.828;2023-11-22T05:31:19;8.87;;;5.37;;
51238;SDS011;38154;47.548;18.828;2023-11-22T05:33:46;12.80;;;6.03;;
51238;SDS011;38154;47.548;18.828;2023-11-22T05:36:12;8.93;;;6.10;;
51238;SDS011;38154;47.548;18.828;2023-11-22T05:38:37;11.50;;;6.18;;
51238;SDS011;38154;47.548;18.828;2023-11-22T05:41:04;12.02;;;7.20;;
51238;SDS011;38154;47.548;18.828;2023-11-22T05:43:30;28.23;;;12.77;;
51238;SDS011;38154;47.548;18.828;2023-11-22T05:45:57;20.45;;;10.88;;
51238;SDS011;38154;47.548;18.828;2023-11-22T05:48:22;17.73;;;8.93;;
51238;SDS011;38154;47.548;18.828;2023-11-22T05:50:48;13.57;;;8.10;;
51238;SDS011;38154;47.548;18.828;2023-11-22T05:53:14;17.08;;;8.20;;
51238;SDS011;38154;47.548;18.828;2023-11-22T05:55:45;15.98;;;7.18;;
51238;SDS011;38154;47.548;18.828;2023-11-22T05:58:13;16.50;;;7.75;;
51238;SDS011;38154;47.548;18.828;2023-11-22T06:00:43;15.63;;;7.07;;
51238;SDS011;38154;47.548;18.828;2023-11-22T06:03:09;13.05;;;6.90;;
51238;SDS011;38154;47.548;18.828;2023-11-22T06:05:35;14.65;;;7.32;;
51238;SDS011;38154;47.548;18.828;2023-11-22T06:08:01;16.65;;;8.63;;
51238;SDS011;38154;47.548;18.828;2023-11-22T06:10:27;13.48;;;7.68;;
51238;SDS011;38154;47.548;18.828;2023-11-22T06:12:53;11.52;;;7.30;;
51238;SDS011;38154;47.548;18.828;2023-11-22T06:15:19;10.90;;;5.93;;
51238;SDS011;38154;47.548;18.828;2023-11-22T06:17:46;11.05;;;6.93;;
51238;SDS011;38154;47.548;18.828;2023-11-22T06:20:14;12.50;;;7.05;;
51238;SDS011;38154;47.548;18.828;2023-11-22T06:22:40;10.57;;;6.18;;
51238;SDS011;38154;47.548;18.828;2023-11-22T06:27:34;15.60;;;7.43;;
51238;SDS011;38154;47.548;18.828;2023-11-22T06:30:00;13.10;;;6.28;;
51238;SDS011;38154;47.548;18.828;2023-11-22T06:32:26;11.35;;;6.30;;
51238;SDS011;38154;47.548;18.828;2023-11-22T06:34:51;10.50;;;6.55;;
51238;SDS011;38154;47.548;18.828;2023-11-22T06:37:17;12.30;;;7.10;;
51238;SDS011;38154;47.548;18.828;2023-11-22T06:39:43;16.15;;;6.93;;
51238;SDS011;38154;47.548;18.828;2023-11-22T06:42:09;9.40;;;5.60;;
51238;SDS011;38154;47.548;18.828;2023-11-22T06:44:36;10.15;;;6.45;;
51238;SDS011;38154;47.548;18.828;2023-11-22T06:47:02;11.00;;;5.32;;
51238;SDS011;38154;47.548;18.828;2023-11-22T06:49:28;13.40;;;7.95;;
51238;SDS011;38154;47.548;18.828;2023-11-22T06:51:54;11.73;;;6.62;;
51238;SDS011;38154;47.548;18.828;2023-11-22T06:54:20;12.05;;;6.00;;
51238;SDS011;38154;47.548;18.828;2023-11-22T06:56:46;10.60;;;5.75;;
51238;SDS011;38154;47.548;18.828;2023-11-22T06:59:11;13.65;;;8.25;;
51238;SDS011;38154;47.548;18.828;2023-11-22T07:01:37;16.00;;;7.43;;
51238;SDS011;38154;47.548;18.828;2023-11-22T07:04:05;14.20;;;8.07;;
51238;SDS011;38154;47.548;18.828;2023-11-22T07:06:32;22.73;;;10.05;;
51238;SDS011;38154;47.548;18.828;2023-11-22T07:08:58;21.50;;;10.00;;
51238;SDS011;38154;47.548;18.828;2023-11-22T07:11:24;11.73;;;7.10;;
51238;SDS011;38154;47.548;18.828;2023-11-22T07:13:51;18.92;;;9.40;;
51238;SDS011;38154;47.548;18.828;2023-11-22T07:16:18;17.12;;;9.27;;
51238;SDS011;38154;47.548;18.828;2023-11-22T07:18:44;13.45;;;5.87;;
51238;SDS011;38154;47.548;18.828;2023-11-22T07:21:11;11.80;;;6.12;;
51238;SDS011;38154;47.548;18.828;2023-11-22T07:23:37;9.27;;;5.68;;
51238;SDS011;38154;47.548;18.828;2023-11-22T07:26:03;10.43;;;5.40;;
51238;SDS011;38154;47.548;18.828;2023-11-22T07:28:29;10.60;;;5.57;;
51238;SDS011;38154;47.548;18.828;2023-11-22T07:30:56;13.18;;;6.72;;
51238;SDS011;38154;47.548;18.828;2023-11-22T07:33:22;21.77;;;9.88;;
51238;SDS011;38154;47.548;18.828;2023-11-22T07:35:51;19.48;;;11.20;;
51238;SDS011;38154;47.548;18.828;2023-11-22T07:38:17;14.18;;;7.45;;
51238;SDS011;38154;47.548;18.828;2023-11-22T07:40:43;20.23;;;9.07;;
51238;SDS011;38154;47.548;18.828;2023-11-22T07:43:09;23.23;;;12.68;;
51238;SDS011;38154;47.548;18.828;2023-11-22T07:45:35;21.95;;;11.73;;
51238;SDS011;38154;47.548;18.828;2023-11-22T07:48:03;24.02;;;10.40;;
51238;SDS011;38154;47.548;18.828;2023-11-22T07:50:29;21.37;;;10.43;;
51238;SDS011;38154;47.548;18.828;2023-11-22T07:52:55;17.87;;;9.97;;
51238;SDS011;38154;47.548;18.828;2023-11-22T07:55:21;20.23;;;9.30;;
51238;SDS011;38154;47.548;18.828;2023-11-22T07:57:48;15.60;;;7.60;;
51238;SDS011;38154;47.548;18.828;2023-11-22T08:00:16;11.27;;;6.65;;
51238;SDS011;38154;47.548;18.828;2023-11-22T08:02:47;13.10;;;6.97;;
51238;SDS011;38154;47.548;18.828;2023-11-22T08:05:13;8.07;;;4.43;;
51238;SDS011;38154;47.548;18.828;2023-11-22T08:07:41;6.93;;;4.45;;
51238;SDS011;38154;47.548;18.828;2023-11-22T08:10:09;7.07;;;4.22;;
51238;SDS011;38154;47.548;18.828;2023-11-22T08:12:43;6.95;;;3.58;;
51238;SDS011;38154;47.548;18.828;2023-11-22T08:15:10;4.07;;;3.00;;
51238;SDS011;38154;47.548;18.828;2023-11-22T08:17:39;3.75;;;3.42;;
51238;SDS011;38154;47.548;18.828;2023-11-22T08:22:33;4.20;;;2.87;;
51238;SDS011;38154;47.548;18.828;2023-11-22T08:25:02;5.00;;;3.30;;
51238;SDS011;38154;47.548;18.828;2023-11-22T08:27:29;4.35;;;3.03;;
51238;SDS011;38154;47.548;18.828;2023-11-22T08:29:56;7.93;;;3.90;;
51238;SDS011;38154;47.548;18.828;2023-11-22T08:32:23;5.78;;;3.67;;
51238;SDS011;38154;47.548;18.828;2023-11-22T08:34:53;5.55;;;3.17;;
51238;SDS011;38154;47.548;18.828;2023-11-22T08:37:19;10.50;;;6.20;;
51238;SDS011;38154;47.548;18.828;2023-11-22T08:39:44;7.33;;;4.40;;
51238;SDS011;38154;47.548;18.828;2023-11-22T08:42:10;4.33;;;2.80;;
51238;SDS011;38154;47.548;18.828;2023-11-22T08:44:37;4.00;;;3.12;;
51238;SDS011;38154;47.548;18.828;2023-11-22T08:47:03;5.47;;;3.60;;
51238;SDS011;38154;47.548;18.828;2023-11-22T08:49:30;8.23;;;3.58;;
51238;SDS011;38154;47.548;18.828;2023-11-22T08:51:56;4.55;;;2.67;;
51238;SDS011;38154;47.548;18.828;2023-11-22T08:54:22;7.57;;;4.40;;
51238;SDS011;38154;47.548;18.828;2023-11-22T08:56:48;6.37;;;4.20;;
51238;SDS011;38154;47.548;18.828;2023-11-22T08:59:14;6.90;;;4.17;;
51238;SDS011;38154;47.548;18.828;2023-11-22T09:01:42;5.37;;;3.67;;
51238;SDS011;38154;47.548;18.828;2023-11-22T09:04:11;7.75;;;4.32;;
51238;SDS011;38154;47.548;18.828;2023-11-22T09:06:37;5.90;;;3.67;;
51238;SDS011;38154;47.548;18.828;2023-11-22T09:09:03;5.53;;;3.03;;
51238;SDS011;38154;47.548;18.828;2023-11-22T09:11:29;7.07;;;4.20;;
51238;SDS011;38154;47.548;18.828;2023-11-22T09:13:54;6.80;;;3.47;;
51238;SDS011;38154;47.548;18.828;2023-11-22T09:16:22;5.40;;;3.58;;
51238;SDS011;38154;47.548;18.828;2023-11-22T09:18:50;4.43;;;3.58;;
51238;SDS011;38154;47.548;18.828;2023-11-22T09:21:17;6.43;;;4.10;;
51238;SDS011;38154;47.548;18.828;2023-11-22T09:23:43;7.25;;;4.22;;
51238;SDS011;38154;47.548;18.828;2023-11-22T09:28:35;7.32;;;4.00;;
51238;SDS011;38154;47.548;18.828;2023-11-22T09:31:01;5.72;;;3.78;;
51238;SDS011;38154;47.548;18.828;2023-11-22T09:33:31;5.35;;;3.10;;
51238;SDS011;38154;47.548;18.828;2023-11-22T09:35:57;5.82;;;3.58;;
51238;SDS011;38154;47.548;18.828;2023-11-22T09:38:23;5.63;;;3.37;;
51238;SDS011;38154;47.548;18.828;2023-11-22T09:40:49;6.05;;;3.53;;
51238;SDS011;38154;47.548;18.828;2023-11-22T09:43:17;4.40;;;3.33;;
51238;SDS011;38154;47.548;18.828;2023-11-22T09:45:48;5.28;;;3.17;;
51238;SDS011;38154;47.548;18.828;2023-11-22T09:53:25;6.03;;;4.00;;
51238;SDS011;38154;47.548;18.828;2023-11-22T09:55:56;7.72;;;4.20;;
51238;SDS011;38154;47.548;18.828;2023-11-22T10:00:50;9.70;;;5.93;;
51238;SDS011;38154;47.548;18.828;2023-11-22T10:03:18;13.13;;;5.07;;
51238;SDS011;38154;47.548;18.828;2023-11-22T10:05:45;9.10;;;4.32;;
51238;SDS011;38154;47.548;18.828;2023-11-22T10:08:13;9.77;;;4.95;;
51238;SDS011;38154;47.548;18.828;2023-11-22T10:10:39;7.85;;;4.53;;
51238;SDS011;38154;47.548;18.828;2023-11-22T10:13:05;9.10;;;4.93;;
51238;SDS011;38154;47.548;18.828;2023-11-22T10:15:31;10.13;;;5.53;;
51238;SDS011;38154;47.548;18.828;2023-11-22T10:17:58;9.73;;;5.57;;
51238;SDS011;38154;47.548;18.828;2023-11-22T10:23:11;9.13;;;4.90;;
51238;SDS011;38154;47.548;18.828;2023-11-22T10:25:43;10.18;;;5.57;;
51238;SDS011;38154;47.548;18.828;2023-11-22T10:28:11;11.80;;;5.97;;
51238;SDS011;38154;47.548;18.828;2023-11-22T10:30:38;11.63;;;6.07;;
51238;SDS011;38154;47.548;18.828;2023-11-22T10:33:06;15.05;;;8.07;;
51238;SDS011;38154;47.548;18.828;2023-11-22T10:35:32;16.37;;;8.32;;
51238;SDS011;38154;47.548;18.828;2023-11-22T10:38:00;13.37;;;7.47;;
51238;SDS011;38154;47.548;18.828;2023-11-22T10:40:32;16.92;;;7.95;;
51238;SDS011;38154;47.548;18.828;2023-11-22T10:42:57;16.87;;;8.13;;
51238;SDS011;38154;47.548;18.828;2023-11-22T10:45:24;15.57;;;8.03;;
51238;SDS011;38154;47.548;18.828;2023-11-22T10:47:54;14.32;;;7.75;;
51238;SDS011;38154;47.548;18.828;2023-11-22T10:50:22;16.87;;;8.07;;
51238;SDS011;38154;47.548;18.828;2023-11-22T10:52:48;14.43;;;7.53;;
51238;SDS011;38154;47.548;18.828;2023-11-22T10:55:21;18.05;;;7.93;;
51238;SDS011;38154;47.548;18.828;2023-11-22T10:57:52;14.43;;;6.53;;
51238;SDS011;38154;47.548;18.828;2023-11-22T11:00:22;10.60;;;7.05;;
51238;SDS011;38154;47.548;18.828;2023-11-22T11:02:51;15.20;;;6.35;;
51238;SDS011;38154;47.548;18.828;2023-11-22T11:05:23;10.90;;;5.53;;
51238;SDS011;38154;47.548;18.828;2023-11-22T11:07:55;9.65;;;5.90;;
51238;SDS011;38154;47.548;18.828;2023-11-22T11:10:27;12.65;;;6.93;;
51238;SDS011;38154;47.548;18.828;2023-11-22T11:12:53;12.37;;;7.53;;
51238;SDS011;38154;47.548;18.828;2023-11-22T11:17:47;15.50;;;6.82;;
51238;SDS011;38154;47.548;18.828;2023-11-22T11:20:15;13.48;;;7.03;;
51238;SDS011;38154;47.548;18.828;2023-11-22T11:22:43;13.25;;;7.40;;
51238;SDS011;38154;47.548;18.828;2023-11-22T11:25:13;16.37;;;8.02;;
51238;SDS011;38154;47.548;18.828;2023-11-22T11:27:41;20.95;;;9.73;;
51238;SDS011;38154;47.548;18.828;2023-11-22T11:33:12;16.02;;;8.05;;
51238;SDS011;38154;47.548;18.828;2023-11-22T11:35:44;19.30;;;8.90;;
51238;SDS011;38154;47.548;18.828;2023-11-22T11:38:13;17.52;;;9.25;;
51238;SDS011;38154;47.548;18.828;2023-11-22T11:43:06;17.12;;;8.63;;
51238;SDS011;38154;47.548;18.828;2023-11-22T11:45:44;19.52;;;8.80;;
51238;SDS011;38154;47.548;18.828;2023-11-22T11:48:13;19.10;;;8.93;;
51238;SDS011;38154;47.548;18.828;2023-11-22T11:50:43;18.73;;;8.57;;
51238;SDS011;38154;47.548;18.828;2023-11-22T11:53:09;16.62;;;9.27;;
51238;SDS011;38154;47.548;18.828;2023-11-22T11:55:38;17.12;;;8.00;;
51238;SDS011;38154;47.548;18.828;2023-11-22T11:58:04;16.33;;;8.52;;
51238;SDS011;38154;47.548;18.828;2023-11-22T12:00:37;17.90;;;8.18;;
51238;SDS011;38154;47.548;18.828;2023-11-22T12:03:09;14.48;;;7.53;;
51238;SDS011;38154;47.548;18.828;2023-11-22T12:05:38;15.15;;;8.02;;
51238;SDS011;38154;47.548;18.828;2023-11-22T12:08:04;13.68;;;7.12;;
51238;SDS011;38154;47.548;18.828;2023-11-22T12:10:31;18.13;;;8.30;;
51238;SDS011;38154;47.548;18.828;2023-11-22T12:12:57;20.90;;;8.00;;
51238;SDS011;38154;47.548;18.828;2023-11-22T12:15:24;15.82;;;7.62;;
51238;SDS011;38154;47.548;18.828;2023-11-22T12:17:51;17.92;;;7.68;;
51238;SDS011;38154;47.548;18.828;2023-11-22T12:20:19;15.50;;;7.80;;
51238;SDS011;38154;47.548;18.828;2023-11-22T12:22:47;11.90;;;6.53;;
51238;SDS011;38154;47.548;18.828;2023-11-22T12:25:13;14.68;;;7.62;;
51238;SDS011;38154;47.548;18.828;2023-11-22T12:27:41;10.75;;;6.95;;
51238;SDS011;38154;47.548;18.828;2023-11-22T12:30:08;16.33;;;7.87;;
51238;SDS011;38154;47.548;18.828;2023-11-22T12:32:37;14.75;;;7.62;;
51238;SDS011;38154;47.548;18.828;2023-11-22T12:35:04;14.40;;;7.60;;
51238;SDS011;38154;47.548;18.828;2023-11-22T12:37:33;16.23;;;6.57;;
51238;SDS011;38154;47.548;18.828;2023-11-22T12:40:06;14.50;;;7.55;;
51238;SDS011;38154;47.548;18.828;2023-11-22T12:42:51;10.00;;;5.55;;
51238;SDS011;38154;47.548;18.828;2023-11-22T12:45:22;11.18;;;6.30;;
51238;SDS011;38154;47.548;18.828;2023-11-22T12:47:49;14.50;;;7.00;;
51238;SDS011;38154;47.548;18.828;2023-11-22T12:50:35;15.30;;;6.35;;
51238;SDS011;38154;47.548;18.828;2023-11-22T12:53:11;16.90;;;7.90;;
51238;SDS011;38154;47.548;18.828;2023-11-22T12:55:41;15.20;;;8.48;;
51238;SDS011;38154;47.548;18.828;2023-11-22T12:58:08;15.63;;;7.97;;
51238;SDS011;38154;47.548;18.828;2023-11-22T13:00:34;17.40;;;9.23;;
51238;SDS011;38154;47.548;18.828;2023-11-22T13:03:01;18.92;;;8.45;;
51238;SDS011;38154;47.548;18.828;2023-11-22T13:05:27;16.27;;;8.50;;
51238;SDS011;38154;47.548;18.828;2023-11-22T13:07:53;14.87;;;8.73;;
51238;SDS011;38154;47.548;18.828;2023-11-22T13:10:19;16.53;;;8.53;;
51238;SDS011;38154;47.548;18.828;2023-11-22T13:12:51;14.23;;;7.12;;
51238;SDS011;38154;47.548;18.828;2023-11-22T13:15:18;15.55;;;8.38;;
51238;SDS011;38154;47.548;18.828;2023-11-22T13:17:46;32.78;;;14.07;;
51238;SDS011;38154;47.548;18.828;2023-11-22T13:20:12;15.50;;;7.13;;
51238;SDS011;38154;47.548;18.828;2023-11-22T13:22:40;12.70;;;6.60;;
51238;SDS011;38154;47.548;18.828;2023-11-22T13:25:09;14.15;;;6.70;;
51238;SDS011;38154;47.548;18.828;2023-11-22T13:27:39;16.40;;;7.40;;
51238;SDS011;38154;47.548;18.828;2023-11-22T13:30:06;14.05;;;7.35;;
51238;SDS011;38154;47.548;18.828;2023-11-22T13:32:33;13.15;;;6.87;;
51238;SDS011;38154;47.548;18.828;2023-11-22T13:34:59;16.67;;;7.12;;
51238;SDS011;38154;47.548;18.828;2023-11-22T13:37:25;18.08;;;7.65;;
51238;SDS011;38154;47.548;18.828;2023-11-22T13:42:18;13.15;;;7.72;;
51238;SDS011;38154;47.548;18.828;2023-11-22T13:44:44;11.50;;;6.55;;
51238;SDS011;38154;47.548;18.828;2023-11-22T13:47:10;23.67;;;8.57;;
51238;SDS011;38154;47.548;18.828;2023-11-22T13:49:36;18.05;;;8.13;;
51238;SDS011;38154;47.548;18.828;2023-11-22T13:52:06;18.45;;;9.07;;
51238;SDS011;38154;47.548;18.828;2023-11-22T13:54:32;15.93;;;7.35;;
51238;SDS011;38154;47.548;18.828;2023-11-22T13:57:00;19.23;;;8.40;;
51238;SDS011;38154;47.548;18.828;2023-11-22T13:59:26;14.95;;;6.40;;
51238;SDS011;38154;47.548;18.828;2023-11-22T14:01:52;20.98;;;8.02;;
51238;SDS011;38154;47.548;18.828;2023-11-22T14:04:18;13.50;;;5.62;;
51238;SDS011;38154;47.548;18.828;2023-11-22T14:06:44;17.27;;;7.53;;
51238;SDS011;38154;47.548;18.828;2023-11-22T14:09:10;22.83;;;9.23;;
51238;SDS011;38154;47.548;18.828;2023-11-22T14:11:38;11.95;;;6.15;;
51238;SDS011;38154;47.548;18.828;2023-11-22T14:14:04;18.77;;;6.45;;
51238;SDS011;38154;47.548;18.828;2023-11-22T14:16:30;18.48;;;7.28;;
51238;SDS011;38154;47.548;18.828;2023-11-22T14:19:00;16.77;;;7.75;;
51238;SDS011;38154;47.548;18.828;2023-11-22T14:21:26;9.18;;;4.80;;
51238;SDS011;38154;47.548;18.828;2023-11-22T14:23:54;16.23;;;7.28;;
51238;SDS011;38154;47.548;18.828;2023-11-22T14:26:20;16.30;;;7.40;;
51238;SDS011;38154;47.548;18.828;2023-11-22T14:28:47;23.98;;;10.05;;
51238;SDS011;38154;47.548;18.828;2023-11-22T14:31:14;22.15;;;8.60;;
51238;SDS011;38154;47.548;18.828;2023-11-22T14:33:40;40.05;;;12.77;;
51238;SDS011;38154;47.548;18.828;2023-11-22T14:36:06;28.62;;;11.20;;
51238;SDS011;38154;47.548;18.828;2023-11-22T14:38:32;16.17;;;7.55;;
51238;SDS011;38154;47.548;18.828;2023-11-22T14:40:58;10.97;;;6.27;;
51238;SDS011;38154;47.548;18.828;2023-11-22T14:43:24;9.93;;;5.87;;
51238;SDS011;38154;47.548;18.828;2023-11-22T14:45:50;13.68;;;6.95;;
51238;SDS011;38154;47.548;18.828;2023-11-22T14:48:16;13.00;;;6.53;;
51238;SDS011;38154;47.548;18.828;2023-11-22T14:50:42;10.82;;;4.65;;
51238;SDS011;38154;47.548;18.828;2023-11-22T14:53:08;13.75;;;6.37;;
51238;SDS011;38154;47.548;18.828;2023-11-22T14:55:34;16.25;;;6.97;;